Captiva, Florida
Current Conditions -  °F | °C
As of 4:53 AM on Sunday 26 Oct 2014 (Local Time) from KFMY Reporting Station
Clear Clear  
Wind Chill: 60°   Ceiling: Unl
Heat Index: 60°   Visibility: 10mi
Dew Point: 57°   Wind: 3mph
Humidity: 90%   Direction: 30°NNE
Pressure: 29.94"   Gusts: NA
Location:  26.52°N, 82.19°W
Report Text: KFMY 260853Z AUTO 03003KT 10SM CLR 16/14 A2994 RMK AO2 SLP141 T01560139 58007 $
Loading
Personal Weather Stations






























Interactive Weather Map
Tropical Storm Tracking
New forecast layout! Learn more

10-Day Weather Forecast

Advertisements
Track Severe Weather on mobile